createdAt,value
2023-04-20T00:03:09.353Z,97.34
2023-04-20T00:07:41.777Z,97.48
2023-04-20T00:12:07.122Z,97.56
2023-04-20T00:16:34.866Z,97.58
2023-04-20T00:21:06.755Z,97.58
2023-04-20T00:25:34.765Z,97.56
2023-04-20T00:29:58.760Z,97.54
2023-04-20T00:34:34.956Z,97.51
2023-04-20T00:38:59.061Z,97.48
2023-04-20T00:43:28.551Z,97.54
2023-04-20T00:47:48.844Z,97.64
2023-04-20T00:52:12.456Z,97.72
2023-04-20T00:56:16.676Z,97.73
2023-04-20T01:01:00.589Z,97.72
2023-04-20T01:05:44.635Z,97.73
2023-04-20T01:10:08.578Z,97.71
2023-04-20T01:14:36.387Z,97.68
2023-04-20T01:19:01.903Z,97.63
2023-04-20T01:23:32.770Z,97.60
2023-04-20T01:28:18.185Z,97.62
2023-04-20T01:32:31.892Z,97.62
2023-04-20T01:36:20.786Z,97.60
2023-04-20T01:40:45.320Z,97.59
2023-04-20T01:45:29.092Z,97.57
2023-04-20T01:49:32.878Z,97.56
2023-04-20T01:54:12.777Z,97.52
2023-04-20T01:58:57.001Z,97.48
2023-04-20T02:03:41.048Z,97.45
2023-04-20T02:07:44.061Z,97.43
2023-04-20T02:12:10.113Z,97.40
2023-04-20T02:16:49.934Z,97.38
2023-04-20T02:21:13.956Z,97.38
2023-04-20T02:25:18.461Z,97.37
2023-04-20T02:29:45.884Z,97.39
2023-04-20T02:34:15.645Z,97.39
2023-04-20T02:38:33.807Z,97.36
2023-04-20T02:42:39.528Z,97.33
2023-04-20T02:47:23.825Z,97.29
2023-04-20T02:52:08.420Z,97.25
2023-04-20T02:56:48.747Z,97.20
2023-04-20T03:01:13.526Z,97.16
2023-04-20T03:05:57.841Z,97.14
2023-04-20T03:09:43.863Z,97.12
2023-04-20T03:13:49.907Z,97.11
2023-04-20T03:17:57.468Z,97.10
2023-04-20T03:22:21.933Z,97.09
2023-04-20T03:27:06.514Z,97.08
2023-04-20T03:31:50.844Z,97.09
2023-04-20T03:36:11.865Z,97.10
2023-04-20T03:43:18.346Z,97.13
2023-04-20T03:47:42.088Z,97.17
2023-04-20T03:52:13.942Z,97.19
2023-04-20T03:56:34.696Z,97.29
2023-04-20T04:01:09.927Z,97.36
2023-04-20T04:05:54.825Z,97.41
2023-04-20T04:10:28.448Z,97.39
2023-04-20T04:14:53.190Z,97.34
2023-04-20T04:19:19.358Z,97.29
2023-04-20T04:23:51.454Z,97.23
2023-04-20T04:28:22.957Z,97.18
2023-04-20T04:33:08.715Z,97.09
2023-04-20T04:37:53.320Z,97.15
2023-04-20T04:42:36.847Z,97.19
2023-04-20T04:47:03.009Z,97.25
2023-04-20T04:51:16.047Z,97.26
2023-04-20T04:55:37.651Z,97.23
2023-04-20T05:00:21.887Z,97.27
2023-04-20T05:04:46.322Z,97.25
2023-04-20T05:09:42.834Z,97.16
2023-04-20T05:14:03.568Z,97.14
2023-04-20T05:18:11.070Z,97.15
2023-04-20T05:22:37.281Z,97.12
2023-04-20T05:27:21.870Z,97.00
2023-04-20T05:31:41.210Z,96.84
2023-04-20T05:36:25.989Z,96.73
2023-04-20T05:40:50.620Z,96.69
2023-04-20T05:44:53.215Z,96.64
2023-04-20T05:53:56.296Z,96.45
2023-04-20T05:58:20.518Z,96.21
2023-04-20T06:02:45.097Z,95.83
2023-04-20T06:06:51.944Z,95.31
2023-04-20T06:11:35.803Z,94.96
2023-04-20T06:16:04.110Z,94.83
2023-04-20T06:20:27.653Z,94.85
2023-04-20T06:24:45.054Z,94.38
2023-04-20T06:28:59.473Z,93.56
2023-04-20T06:33:27.507Z,92.41
2023-04-20T06:38:11.978Z,91.62
2023-04-20T06:42:28.643Z,91.61
2023-04-20T06:47:12.203Z,90.40
2023-04-20T06:51:36.821Z,90.00
2023-04-20T06:55:13.664Z,89.35
2023-04-20T06:59:30.071Z,89.17
2023-04-20T07:03:47.132Z,89.44
2023-04-20T07:08:14.631Z,89.80
2023-04-20T07:12:02.449Z,90.02
2023-04-20T07:16:19.248Z,89.79
2023-04-20T07:20:27.416Z,86.38
2023-04-20T07:24:31.734Z,83.61
2023-04-20T07:28:15.055Z,82.77
2023-04-20T07:32:38.921Z,81.57
2023-04-20T07:36:16.876Z,81.35
2023-04-20T07:40:14.077Z,79.47
2023-04-20T07:44:02.834Z,80.29
2023-04-20T07:47:57.794Z,79.68
2023-04-20T07:51:26.568Z,81.65
2023-04-20T07:54:58.713Z,79.77
2023-04-20T07:58:51.317Z,80.34
2023-04-20T08:02:24.790Z,80.69
2023-04-20T08:05:57.758Z,78.36
2023-04-20T08:09:29.880Z,77.23
2023-04-20T08:13:06.332Z,76.23
2023-04-20T08:17:17.031Z,77.04
2023-04-20T08:20:38.005Z,75.61
2023-04-20T08:24:44.124Z,75.43
2023-04-20T08:27:57.870Z,75.46
2023-04-20T08:31:42.379Z,74.59
2023-04-20T08:35:27.016Z,76.15
2023-04-20T08:38:55.998Z,72.06
2023-04-20T08:42:23.466Z,73.60
2023-04-20T08:46:02.089Z,74.06
2023-04-20T08:49:56.544Z,73.08
2023-04-20T08:53:10.987Z,72.39
2023-04-20T08:56:57.918Z,72.33
2023-04-20T09:00:43.936Z,72.30
2023-04-20T09:14:08.278Z,70.77
2023-04-20T09:17:57.173Z,70.40
2023-04-20T09:21:13.979Z,71.50
2023-04-20T09:24:35.003Z,69.71
2023-04-20T09:28:01.464Z,70.62
2023-04-20T09:31:22.330Z,69.40
2023-04-20T09:35:02.193Z,71.78
2023-04-20T09:38:38.317Z,72.59
2023-04-20T09:42:02.736Z,71.34
2023-04-20T09:45:20.989Z,69.66
2023-04-20T09:49:02.374Z,68.34
2023-04-20T09:52:24.102Z,69.19
2023-04-20T09:55:41.125Z,67.07
2023-04-20T09:58:52.742Z,66.75
2023-04-20T10:02:14.911Z,68.16
2023-04-20T10:05:58.240Z,66.18
2023-04-20T10:09:26.310Z,66.92
2023-04-20T10:13:08.740Z,69.25
2023-04-20T10:16:22.232Z,67.48
2023-04-20T10:19:49.103Z,68.45
2023-04-20T10:23:20.854Z,66.82
2023-04-20T10:27:20.579Z,67.48
2023-04-20T10:30:53.749Z,67.57
2023-04-20T10:34:07.103Z,66.29
2023-04-20T10:37:58.168Z,66.36
2023-04-20T10:41:20.557Z,65.70
2023-04-20T10:44:36.974Z,66.51
2023-04-20T10:48:10.774Z,65.84
2023-04-20T10:51:28.824Z,65.04
2023-04-20T10:54:53.291Z,63.65
2023-04-20T10:58:26.318Z,64.46
2023-04-20T11:01:36.913Z,62.16
2023-04-20T11:05:03.959Z,61.06
2023-04-20T11:09:00.266Z,60.76
2023-04-20T11:12:38.765Z,61.27
2023-04-20T11:16:11.130Z,60.80
2023-04-20T11:19:26.044Z,59.54
2023-04-20T11:22:58.260Z,60.30
2023-04-20T11:26:12.422Z,60.60
2023-04-20T11:29:34.312Z,58.95
2023-04-20T11:32:56.005Z,59.30
2023-04-20T11:36:39.887Z,59.01
2023-04-20T11:40:05.430Z,58.65
2023-04-20T11:43:25.251Z,59.45
2023-04-20T11:46:51.199Z,59.32
2023-04-20T11:50:16.369Z,59.14
2023-04-20T11:53:38.561Z,58.97
2023-04-20T11:56:54.803Z,57.59
2023-04-20T12:00:15.145Z,57.35
2023-04-20T12:03:38.756Z,57.75
2023-04-20T12:06:50.960Z,56.99
2023-04-20T12:10:16.023Z,55.67
2023-04-20T12:13:51.551Z,55.00
2023-04-20T12:17:15.128Z,54.79
2023-04-20T12:20:36.978Z,55.31
2023-04-20T12:24:15.570Z,55.59
2023-04-20T12:27:38.384Z,55.87
2023-04-20T12:31:00.610Z,56.16
2023-04-20T12:34:16.000Z,54.94
2023-04-20T12:37:21.943Z,54.13
2023-04-20T12:40:58.514Z,53.78
2023-04-20T12:44:28.049Z,53.29
2023-04-20T12:47:56.242Z,51.67
2023-04-20T12:51:39.464Z,51.39
2023-04-20T12:55:17.819Z,50.77
2023-04-20T12:58:41.566Z,51.53
2023-04-20T13:02:04.191Z,52.31
2023-04-20T13:05:34.937Z,52.45
2023-04-20T13:08:59.193Z,52.25
2023-04-20T13:12:22.633Z,51.31
2023-04-20T13:15:38.718Z,52.01
2023-04-20T13:19:04.710Z,52.23
2023-04-20T13:22:27.632Z,50.78
2023-04-20T13:26:02.566Z,51.66
2023-04-20T13:29:27.444Z,51.11
2023-04-20T13:32:35.478Z,52.98
2023-04-20T13:36:04.595Z,50.60
2023-04-20T13:39:16.609Z,50.54
2023-04-20T13:42:35.058Z,51.59
2023-04-20T13:45:58.871Z,51.30
2023-04-20T13:49:13.575Z,52.50
2023-04-20T13:52:38.834Z,52.58
2023-04-20T13:56:05.773Z,52.61
2023-04-20T13:59:32.266Z,54.31
2023-04-20T14:02:52.577Z,53.64
2023-04-20T14:06:22.160Z,52.81
2023-04-20T14:10:10.153Z,53.62
2023-04-20T14:13:34.961Z,52.36
2023-04-20T14:16:57.930Z,51.74
2023-04-20T14:20:34.246Z,53.61
2023-04-20T14:23:56.073Z,53.78
2023-04-20T14:27:06.028Z,52.78
2023-04-20T14:30:44.032Z,52.94
2023-04-20T14:34:00.126Z,51.82
2023-04-20T14:37:21.852Z,51.39
2023-04-20T14:40:35.800Z,52.19
2023-04-20T14:44:01.726Z,53.66
2023-04-20T14:47:32.384Z,53.29
2023-04-20T14:51:09.453Z,52.56
2023-04-20T14:54:32.706Z,52.62
2023-04-20T14:58:38.873Z,52.37
2023-04-20T15:02:06.058Z,52.08
2023-04-20T15:05:49.963Z,52.01
2023-04-20T15:09:34.962Z,51.23
2023-04-20T15:12:52.792Z,49.90
2023-04-20T15:16:12.578Z,49.71
2023-04-20T15:19:34.887Z,50.71
2023-04-20T15:23:25.827Z,51.16
2023-04-20T15:26:51.212Z,51.25
2023-04-20T15:30:22.942Z,51.24
2023-04-20T15:33:36.010Z,50.79
2023-04-20T15:37:16.781Z,50.35
2023-04-20T15:48:22.495Z,51.76
2023-04-20T15:51:38.775Z,52.87
2023-04-20T15:55:05.623Z,52.64
2023-04-20T15:58:33.413Z,52.84
2023-04-20T16:01:57.550Z,53.48
2023-04-20T16:05:27.441Z,53.01
2023-04-20T16:08:43.773Z,53.41
2023-04-20T16:12:03.608Z,52.79
2023-04-20T16:15:36.152Z,52.15
2023-04-20T16:19:04.994Z,52.87
2023-04-20T16:22:30.257Z,53.13
2023-04-20T16:25:47.528Z,53.39
2023-04-20T16:29:13.139Z,53.87
2023-04-20T16:32:19.249Z,53.63
2023-04-20T16:35:41.787Z,53.53
2023-04-20T16:39:11.416Z,53.60
2023-04-20T16:43:39.682Z,53.14
2023-04-20T16:47:34.305Z,53.33
2023-04-20T16:50:44.790Z,53.92
2023-04-20T16:54:33.414Z,54.19
2023-04-20T16:58:02.450Z,54.36
2023-04-20T17:02:07.186Z,55.13
2023-04-20T17:05:25.956Z,55.49
2023-04-20T17:09:12.668Z,55.81
2023-04-20T17:13:04.731Z,56.82
2023-04-20T17:17:16.291Z,57.22
2023-04-20T17:21:40.697Z,57.53
2023-04-20T17:26:05.479Z,57.73
2023-04-20T17:30:38.842Z,57.98
2023-04-20T17:34:26.115Z,58.49
2023-04-20T17:38:50.307Z,59.11
2023-04-20T17:42:50.036Z,59.73
2023-04-20T17:46:52.495Z,60.18
2023-04-20T17:50:36.689Z,60.30
2023-04-20T17:54:16.736Z,60.82
2023-04-20T17:58:40.495Z,61.12
2023-04-20T18:02:30.044Z,61.43
2023-04-20T18:06:32.814Z,61.86
2023-04-20T18:10:44.982Z,62.76
2023-04-20T18:14:25.110Z,62.97
2023-04-20T18:18:27.631Z,63.73
2023-04-20T18:22:20.325Z,65.06
2023-04-20T18:26:25.267Z,66.10
2023-04-20T18:30:36.801Z,66.18
2023-04-20T18:34:56.026Z,66.72
2023-04-20T18:39:27.743Z,67.64
2023-04-20T18:43:49.733Z,68.26
2023-04-20T18:47:55.501Z,68.30
2023-04-20T18:52:18.253Z,68.79
2023-04-20T18:56:42.360Z,69.27
2023-04-20T19:01:06.715Z,69.39
2023-04-20T19:05:26.543Z,69.88
2023-04-20T19:09:47.712Z,69.60
2023-04-20T19:13:52.566Z,69.53
2023-04-20T19:18:26.214Z,69.85
2023-04-20T19:22:41.205Z,70.19
2023-04-20T19:26:52.647Z,70.57
2023-04-20T19:31:00.968Z,70.77
2023-04-20T19:35:28.820Z,71.44
2023-04-20T19:39:01.607Z,71.86
2023-04-20T19:43:06.030Z,72.46
2023-04-20T19:47:45.757Z,72.72
2023-04-20T19:52:11.369Z,72.74
2023-04-20T19:56:23.261Z,73.21
2023-04-20T20:00:46.349Z,72.92
2023-04-20T20:04:43.214Z,72.80
2023-04-20T20:08:49.932Z,72.65
2023-04-20T20:13:04.643Z,73.65
2023-04-20T20:17:28.991Z,73.19
2023-04-20T20:21:53.446Z,73.50
2023-04-20T20:26:14.052Z,74.26
2023-04-20T20:30:46.092Z,75.95
2023-04-20T20:35:36.588Z,77.30
2023-04-20T20:39:09.793Z,77.93
2023-04-20T20:43:15.706Z,78.12
2023-04-20T20:47:34.322Z,78.13
2023-04-20T20:51:38.087Z,78.17
2023-04-20T20:56:03.139Z,77.60
2023-04-20T21:00:09.548Z,77.36
2023-04-20T21:04:09.014Z,75.94
2023-04-20T21:08:24.688Z,77.26
2023-04-20T21:12:55.506Z,77.28
2023-04-20T21:17:23.274Z,76.95
2023-04-20T21:22:07.412Z,78.34
2023-04-20T21:26:46.425Z,79.58
2023-04-20T21:31:24.058Z,80.22
2023-04-20T21:35:49.078Z,81.21
2023-04-20T21:40:33.376Z,81.70
2023-04-20T21:44:39.795Z,80.81
2023-04-20T21:49:20.173Z,80.79
2023-04-20T21:53:44.005Z,80.78
2023-04-20T21:58:12.052Z,80.95
2023-04-20T22:02:56.570Z,80.73
2023-04-20T22:07:22.247Z,80.91
2023-04-20T22:12:02.047Z,81.02
2023-04-20T22:16:30.298Z,81.43
2023-04-20T22:21:15.486Z,80.59
2023-04-20T22:25:43.297Z,79.40
2023-04-20T22:30:27.464Z,81.45
2023-04-20T22:35:11.731Z,82.50
2023-04-20T22:39:24.918Z,83.26
2023-04-20T22:43:49.512Z,84.12
2023-04-20T22:48:22.219Z,84.10
2023-04-20T22:52:54.306Z,84.84
2023-04-20T22:57:33.814Z,84.40
2023-04-20T23:02:18.409Z,84.61
2023-04-20T23:06:38.905Z,85.10
2023-04-20T23:11:23.422Z,85.35
2023-04-20T23:15:27.790Z,85.68
2023-04-20T23:19:42.958Z,85.59
2023-04-20T23:24:23.618Z,85.90
2023-04-20T23:28:48.282Z,85.74
2023-04-20T23:33:12.527Z,85.78
2023-04-20T23:37:44.467Z,85.68
2023-04-20T23:42:24.192Z,85.44
2023-04-20T23:46:51.004Z,84.68
2023-04-20T23:51:15.095Z,84.54
2023-04-20T23:55:39.194Z,84.85
